sensor_id;sensor_type;location;lat;lon;timestamp;P1;durP1;ratioP1;P2;durP2;ratioP2
31126;SDS011;17775;57.948;12.514;2024-02-26T00:01:51;0.50;;;0.50;;
31126;SDS011;17775;57.948;12.514;2024-02-26T00:04:18;0.50;;;0.30;;
31126;SDS011;17775;57.948;12.514;2024-02-26T00:06:45;0.40;;;0.30;;
31126;SDS011;17775;57.948;12.514;2024-02-26T00:09:11;0.40;;;0.40;;
31126;SDS011;17775;57.948;12.514;2024-02-26T00:11:38;0.32;;;0.30;;
31126;SDS011;17775;57.948;12.514;2024-02-26T00:14:05;0.60;;;0.40;;
31126;SDS011;17775;57.948;12.514;2024-02-26T00:16:31;0.38;;;0.38;;
31126;SDS011;17775;57.948;12.514;2024-02-26T00:18:58;0.45;;;0.45;;
31126;SDS011;17775;57.948;12.514;2024-02-26T00:21:25;0.40;;;0.40;;
31126;SDS011;17775;57.948;12.514;2024-02-26T00:23:52;0.32;;;0.32;;
31126;SDS011;17775;57.948;12.514;2024-02-26T00:26:19;0.40;;;0.40;;
31126;SDS011;17775;57.948;12.514;2024-02-26T00:28:46;0.40;;;0.40;;
31126;SDS011;17775;57.948;12.514;2024-02-26T00:31:12;0.40;;;0.40;;
31126;SDS011;17775;57.948;12.514;2024-02-26T00:33:39;0.43;;;0.40;;
31126;SDS011;17775;57.948;12.514;2024-02-26T00:36:06;0.40;;;0.30;;
31126;SDS011;17775;57.948;12.514;2024-02-26T00:38:32;0.32;;;0.32;;
31126;SDS011;17775;57.948;12.514;2024-02-26T00:40:59;0.57;;;0.50;;
31126;SDS011;17775;57.948;12.514;2024-02-26T00:43:25;0.50;;;0.40;;
31126;SDS011;17775;57.948;12.514;2024-02-26T00:45:52;0.50;;;0.50;;
31126;SDS011;17775;57.948;12.514;2024-02-26T00:48:19;0.40;;;0.40;;
31126;SDS011;17775;57.948;12.514;2024-02-26T00:50:45;0.30;;;0.30;;
31126;SDS011;17775;57.948;12.514;2024-02-26T00:53:12;0.45;;;0.45;;
31126;SDS011;17775;57.948;12.514;2024-02-26T00:55:38;0.40;;;0.40;;
31126;SDS011;17775;57.948;12.514;2024-02-26T00:58:05;0.30;;;0.30;;
31126;SDS011;17775;57.948;12.514;2024-02-26T01:00:33;0.50;;;0.50;;
31126;SDS011;17775;57.948;12.514;2024-02-26T01:03:00;0.40;;;0.40;;
31126;SDS011;17775;57.948;12.514;2024-02-26T01:05:26;0.65;;;0.60;;
31126;SDS011;17775;57.948;12.514;2024-02-26T01:07:53;0.38;;;0.38;;
31126;SDS011;17775;57.948;12.514;2024-02-26T01:10:20;0.40;;;0.40;;
31126;SDS011;17775;57.948;12.514;2024-02-26T01:12:46;0.40;;;0.40;;
31126;SDS011;17775;57.948;12.514;2024-02-26T01:15:14;0.50;;;0.40;;
31126;SDS011;17775;57.948;12.514;2024-02-26T01:17:41;0.75;;;0.47;;
31126;SDS011;17775;57.948;12.514;2024-02-26T01:20:08;0.70;;;0.50;;
31126;SDS011;17775;57.948;12.514;2024-02-26T01:22:35;0.55;;;0.50;;
31126;SDS011;17775;57.948;12.514;2024-02-26T01:25:02;0.50;;;0.50;;
31126;SDS011;17775;57.948;12.514;2024-02-26T01:27:28;0.40;;;0.40;;
31126;SDS011;17775;57.948;12.514;2024-02-26T01:29:55;0.35;;;0.35;;
31126;SDS011;17775;57.948;12.514;2024-02-26T01:32:21;0.52;;;0.50;;
31126;SDS011;17775;57.948;12.514;2024-02-26T01:34:48;0.57;;;0.50;;
31126;SDS011;17775;57.948;12.514;2024-02-26T01:37:14;0.40;;;0.40;;
31126;SDS011;17775;57.948;12.514;2024-02-26T01:39:44;0.60;;;0.60;;
31126;SDS011;17775;57.948;12.514;2024-02-26T01:42:10;0.95;;;0.70;;
31126;SDS011;17775;57.948;12.514;2024-02-26T01:44:37;1.25;;;0.70;;
31126;SDS011;17775;57.948;12.514;2024-02-26T01:47:05;0.77;;;0.65;;
31126;SDS011;17775;57.948;12.514;2024-02-26T01:49:34;0.70;;;0.70;;
31126;SDS011;17775;57.948;12.514;2024-02-26T01:52:01;0.85;;;0.60;;
31126;SDS011;17775;57.948;12.514;2024-02-26T01:54:29;0.68;;;0.68;;
31126;SDS011;17775;57.948;12.514;2024-02-26T01:56:56;0.60;;;0.60;;
31126;SDS011;17775;57.948;12.514;2024-02-26T01:59:23;0.75;;;0.60;;
31126;SDS011;17775;57.948;12.514;2024-02-26T02:01:52;0.82;;;0.60;;
31126;SDS011;17775;57.948;12.514;2024-02-26T02:04:20;0.68;;;0.68;;
31126;SDS011;17775;57.948;12.514;2024-02-26T02:06:47;0.40;;;0.40;;
31126;SDS011;17775;57.948;12.514;2024-02-26T02:09:15;0.50;;;0.50;;
31126;SDS011;17775;57.948;12.514;2024-02-26T02:11:41;1.10;;;0.57;;
31126;SDS011;17775;57.948;12.514;2024-02-26T02:14:08;0.70;;;0.70;;
31126;SDS011;17775;57.948;12.514;2024-02-26T02:16:34;0.70;;;0.50;;
31126;SDS011;17775;57.948;12.514;2024-02-26T02:19:00;0.85;;;0.63;;
31126;SDS011;17775;57.948;12.514;2024-02-26T02:21:27;0.70;;;0.60;;
31126;SDS011;17775;57.948;12.514;2024-02-26T02:23:56;0.50;;;0.50;;
31126;SDS011;17775;57.948;12.514;2024-02-26T02:26:23;0.40;;;0.40;;
31126;SDS011;17775;57.948;12.514;2024-02-26T02:28:49;0.68;;;0.50;;
31126;SDS011;17775;57.948;12.514;2024-02-26T02:31:16;1.35;;;1.25;;
31126;SDS011;17775;57.948;12.514;2024-02-26T02:33:43;0.30;;;0.30;;
31126;SDS011;17775;57.948;12.514;2024-02-26T02:36:10;0.68;;;0.40;;
31126;SDS011;17775;57.948;12.514;2024-02-26T02:38:37;0.40;;;0.40;;
31126;SDS011;17775;57.948;12.514;2024-02-26T02:41:04;0.68;;;0.50;;
31126;SDS011;17775;57.948;12.514;2024-02-26T02:43:31;0.80;;;0.68;;
31126;SDS011;17775;57.948;12.514;2024-02-26T02:45:57;0.43;;;0.40;;
31126;SDS011;17775;57.948;12.514;2024-02-26T02:48:24;0.40;;;0.38;;
31126;SDS011;17775;57.948;12.514;2024-02-26T02:50:53;0.50;;;0.50;;
31126;SDS011;17775;57.948;12.514;2024-02-26T02:53:20;0.40;;;0.40;;
31126;SDS011;17775;57.948;12.514;2024-02-26T02:55:46;0.30;;;0.30;;
31126;SDS011;17775;57.948;12.514;2024-02-26T02:58:13;1.02;;;0.75;;
31126;SDS011;17775;57.948;12.514;2024-02-26T03:00:39;0.93;;;0.70;;
31126;SDS011;17775;57.948;12.514;2024-02-26T03:03:06;0.82;;;0.63;;
31126;SDS011;17775;57.948;12.514;2024-02-26T03:05:32;0.80;;;0.60;;
31126;SDS011;17775;57.948;12.514;2024-02-26T03:07:59;1.10;;;0.73;;
31126;SDS011;17775;57.948;12.514;2024-02-26T03:10:26;1.08;;;0.80;;
31126;SDS011;17775;57.948;12.514;2024-02-26T03:12:53;0.68;;;0.60;;
31126;SDS011;17775;57.948;12.514;2024-02-26T03:15:20;1.02;;;0.80;;
31126;SDS011;17775;57.948;12.514;2024-02-26T03:17:46;1.20;;;0.82;;
31126;SDS011;17775;57.948;12.514;2024-02-26T03:20:13;0.90;;;0.70;;
31126;SDS011;17775;57.948;12.514;2024-02-26T03:22:39;0.70;;;0.70;;
31126;SDS011;17775;57.948;12.514;2024-02-26T03:25:06;0.93;;;0.63;;
31126;SDS011;17775;57.948;12.514;2024-02-26T03:27:33;1.88;;;1.38;;
31126;SDS011;17775;57.948;12.514;2024-02-26T03:30:00;2.38;;;1.50;;
31126;SDS011;17775;57.948;12.514;2024-02-26T03:32:26;3.13;;;1.50;;
31126;SDS011;17775;57.948;12.514;2024-02-26T03:34:53;1.92;;;1.40;;
31126;SDS011;17775;57.948;12.514;2024-02-26T03:37:22;1.60;;;1.20;;
31126;SDS011;17775;57.948;12.514;2024-02-26T03:39:48;1.58;;;1.10;;
31126;SDS011;17775;57.948;12.514;2024-02-26T03:42:15;1.15;;;0.90;;
31126;SDS011;17775;57.948;12.514;2024-02-26T03:44:42;1.05;;;0.90;;
31126;SDS011;17775;57.948;12.514;2024-02-26T03:47:12;0.95;;;0.80;;
31126;SDS011;17775;57.948;12.514;2024-02-26T03:49:38;0.80;;;0.70;;
31126;SDS011;17775;57.948;12.514;2024-02-26T03:52:05;1.13;;;0.70;;
31126;SDS011;17775;57.948;12.514;2024-02-26T03:54:32;1.00;;;0.75;;
31126;SDS011;17775;57.948;12.514;2024-02-26T03:56:58;0.50;;;0.50;;
31126;SDS011;17775;57.948;12.514;2024-02-26T03:59:25;0.60;;;0.55;;
31126;SDS011;17775;57.948;12.514;2024-02-26T04:01:52;0.50;;;0.40;;
31126;SDS011;17775;57.948;12.514;2024-02-26T04:04:19;0.98;;;0.90;;
31126;SDS011;17775;57.948;12.514;2024-02-26T04:06:45;0.60;;;0.60;;
31126;SDS011;17775;57.948;12.514;2024-02-26T04:09:15;0.70;;;0.60;;
31126;SDS011;17775;57.948;12.514;2024-02-26T04:11:42;0.60;;;0.60;;
31126;SDS011;17775;57.948;12.514;2024-02-26T04:14:11;1.05;;;0.70;;
31126;SDS011;17775;57.948;12.514;2024-02-26T04:16:39;0.88;;;0.68;;
31126;SDS011;17775;57.948;12.514;2024-02-26T04:19:05;1.00;;;0.60;;
31126;SDS011;17775;57.948;12.514;2024-02-26T04:21:36;1.10;;;0.80;;
31126;SDS011;17775;57.948;12.514;2024-02-26T04:24:02;1.20;;;0.88;;
31126;SDS011;17775;57.948;12.514;2024-02-26T04:26:29;1.10;;;0.80;;
31126;SDS011;17775;57.948;12.514;2024-02-26T04:28:56;0.93;;;0.80;;
31126;SDS011;17775;57.948;12.514;2024-02-26T04:31:23;0.70;;;0.70;;
31126;SDS011;17775;57.948;12.514;2024-02-26T04:33:49;1.25;;;0.90;;
31126;SDS011;17775;57.948;12.514;2024-02-26T04:36:17;0.77;;;0.70;;
31126;SDS011;17775;57.948;12.514;2024-02-26T04:38:47;0.80;;;0.68;;
31126;SDS011;17775;57.948;12.514;2024-02-26T04:41:13;0.80;;;0.70;;
31126;SDS011;17775;57.948;12.514;2024-02-26T04:43:40;0.60;;;0.60;;
31126;SDS011;17775;57.948;12.514;2024-02-26T04:46:08;0.63;;;0.52;;
31126;SDS011;17775;57.948;12.514;2024-02-26T04:48:35;0.90;;;0.70;;
31126;SDS011;17775;57.948;12.514;2024-02-26T04:51:02;1.50;;;0.93;;
31126;SDS011;17775;57.948;12.514;2024-02-26T04:53:28;1.70;;;1.02;;
31126;SDS011;17775;57.948;12.514;2024-02-26T04:55:55;1.40;;;0.88;;
31126;SDS011;17775;57.948;12.514;2024-02-26T04:58:24;1.00;;;0.80;;
31126;SDS011;17775;57.948;12.514;2024-02-26T05:00:50;1.10;;;0.80;;
31126;SDS011;17775;57.948;12.514;2024-02-26T05:03:17;0.95;;;0.70;;
31126;SDS011;17775;57.948;12.514;2024-02-26T05:05:43;0.80;;;0.63;;
31126;SDS011;17775;57.948;12.514;2024-02-26T05:08:10;0.70;;;0.70;;
31126;SDS011;17775;57.948;12.514;2024-02-26T05:10:37;1.65;;;1.00;;
31126;SDS011;17775;57.948;12.514;2024-02-26T05:13:09;1.33;;;0.90;;
31126;SDS011;17775;57.948;12.514;2024-02-26T05:15:35;0.88;;;0.65;;
31126;SDS011;17775;57.948;12.514;2024-02-26T05:18:02;0.80;;;0.70;;
31126;SDS011;17775;57.948;12.514;2024-02-26T05:20:29;0.82;;;0.60;;
31126;SDS011;17775;57.948;12.514;2024-02-26T05:22:57;0.82;;;0.80;;
31126;SDS011;17775;57.948;12.514;2024-02-26T05:25:25;1.30;;;0.90;;
31126;SDS011;17775;57.948;12.514;2024-02-26T05:27:51;0.90;;;0.70;;
31126;SDS011;17775;57.948;12.514;2024-02-26T05:30:18;0.80;;;0.70;;
31126;SDS011;17775;57.948;12.514;2024-02-26T05:32:46;0.85;;;0.60;;
31126;SDS011;17775;57.948;12.514;2024-02-26T05:35:13;0.60;;;0.50;;
31126;SDS011;17775;57.948;12.514;2024-02-26T05:37:41;0.65;;;0.60;;
31126;SDS011;17775;57.948;12.514;2024-02-26T05:40:07;0.80;;;0.60;;
31126;SDS011;17775;57.948;12.514;2024-02-26T05:42:34;0.52;;;0.52;;
31126;SDS011;17775;57.948;12.514;2024-02-26T05:45:00;0.60;;;0.52;;
31126;SDS011;17775;57.948;12.514;2024-02-26T05:47:32;0.57;;;0.50;;
31126;SDS011;17775;57.948;12.514;2024-02-26T05:49:59;0.60;;;0.45;;
31126;SDS011;17775;57.948;12.514;2024-02-26T05:52:27;0.50;;;0.38;;
31126;SDS011;17775;57.948;12.514;2024-02-26T05:54:54;0.50;;;0.50;;
31126;SDS011;17775;57.948;12.514;2024-02-26T05:57:20;0.50;;;0.43;;
31126;SDS011;17775;57.948;12.514;2024-02-26T05:59:47;0.47;;;0.45;;
31126;SDS011;17775;57.948;12.514;2024-02-26T06:02:14;0.45;;;0.40;;
31126;SDS011;17775;57.948;12.514;2024-02-26T06:04:43;0.40;;;0.40;;
31126;SDS011;17775;57.948;12.514;2024-02-26T06:07:10;0.30;;;0.30;;
31126;SDS011;17775;57.948;12.514;2024-02-26T06:09:36;0.65;;;0.57;;
31126;SDS011;17775;57.948;12.514;2024-02-26T06:12:03;0.35;;;0.35;;
31126;SDS011;17775;57.948;12.514;2024-02-26T06:14:30;0.50;;;0.40;;
31126;SDS011;17775;57.948;12.514;2024-02-26T06:16:56;0.35;;;0.35;;
31126;SDS011;17775;57.948;12.514;2024-02-26T06:19:22;0.40;;;0.40;;
31126;SDS011;17775;57.948;12.514;2024-02-26T06:21:49;0.40;;;0.40;;
31126;SDS011;17775;57.948;12.514;2024-02-26T06:24:17;0.73;;;0.50;;
31126;SDS011;17775;57.948;12.514;2024-02-26T06:26:43;0.43;;;0.43;;
31126;SDS011;17775;57.948;12.514;2024-02-26T06:29:10;0.80;;;0.50;;
31126;SDS011;17775;57.948;12.514;2024-02-26T06:31:36;0.75;;;0.60;;
31126;SDS011;17775;57.948;12.514;2024-02-26T06:34:03;0.43;;;0.43;;
31126;SDS011;17775;57.948;12.514;2024-02-26T06:36:30;0.65;;;0.55;;
31126;SDS011;17775;57.948;12.514;2024-02-26T06:38:58;0.60;;;0.60;;
31126;SDS011;17775;57.948;12.514;2024-02-26T06:41:24;0.80;;;0.60;;
31126;SDS011;17775;57.948;12.514;2024-02-26T06:43:54;0.50;;;0.50;;
31126;SDS011;17775;57.948;12.514;2024-02-26T06:46:20;0.40;;;0.40;;
31126;SDS011;17775;57.948;12.514;2024-02-26T06:48:47;0.57;;;0.52;;
31126;SDS011;17775;57.948;12.514;2024-02-26T06:51:14;0.63;;;0.50;;
31126;SDS011;17775;57.948;12.514;2024-02-26T06:53:41;0.60;;;0.50;;
31126;SDS011;17775;57.948;12.514;2024-02-26T06:56:07;0.47;;;0.43;;
31126;SDS011;17775;57.948;12.514;2024-02-26T06:58:34;0.43;;;0.43;;
31126;SDS011;17775;57.948;12.514;2024-02-26T07:01:00;0.52;;;0.40;;
31126;SDS011;17775;57.948;12.514;2024-02-26T07:03:27;0.63;;;0.55;;
31126;SDS011;17775;57.948;12.514;2024-02-26T07:05:54;0.68;;;0.60;;
31126;SDS011;17775;57.948;12.514;2024-02-26T07:08:20;0.77;;;0.60;;
31126;SDS011;17775;57.948;12.514;2024-02-26T07:10:47;0.68;;;0.63;;
31126;SDS011;17775;57.948;12.514;2024-02-26T07:13:14;0.73;;;0.63;;
31126;SDS011;17775;57.948;12.514;2024-02-26T07:15:40;0.52;;;0.50;;
31126;SDS011;17775;57.948;12.514;2024-02-26T07:18:07;1.23;;;0.80;;
31126;SDS011;17775;57.948;12.514;2024-02-26T07:20:34;0.90;;;0.68;;
31126;SDS011;17775;57.948;12.514;2024-02-26T07:23:00;0.80;;;0.50;;
31126;SDS011;17775;57.948;12.514;2024-02-26T07:25:27;0.80;;;0.60;;
31126;SDS011;17775;57.948;12.514;2024-02-26T07:27:53;0.70;;;0.52;;
31126;SDS011;17775;57.948;12.514;2024-02-26T07:30:19;0.65;;;0.50;;
31126;SDS011;17775;57.948;12.514;2024-02-26T07:32:49;0.40;;;0.40;;
31126;SDS011;17775;57.948;12.514;2024-02-26T07:35:16;0.50;;;0.40;;
31126;SDS011;17775;57.948;12.514;2024-02-26T07:37:44;0.55;;;0.50;;
31126;SDS011;17775;57.948;12.514;2024-02-26T07:40:10;0.82;;;0.60;;
31126;SDS011;17775;57.948;12.514;2024-02-26T07:42:37;0.40;;;0.40;;
31126;SDS011;17775;57.948;12.514;2024-02-26T07:48:26;0.55;;;0.50;;
31126;SDS011;17775;57.948;12.514;2024-02-26T07:54:14;0.40;;;0.40;;
31126;SDS011;17775;57.948;12.514;2024-02-26T07:56:43;0.70;;;0.60;;
31126;SDS011;17775;57.948;12.514;2024-02-26T07:59:09;0.75;;;0.57;;
31126;SDS011;17775;57.948;12.514;2024-02-26T08:01:49;0.40;;;0.40;;
31126;SDS011;17775;57.948;12.514;2024-02-26T08:04:24;0.55;;;0.40;;
31126;SDS011;17775;57.948;12.514;2024-02-26T08:06:53;0.60;;;0.52;;
31126;SDS011;17775;57.948;12.514;2024-02-26T08:09:22;0.70;;;0.70;;
31126;SDS011;17775;57.948;12.514;2024-02-26T08:11:49;0.70;;;0.60;;
31126;SDS011;17775;57.948;12.514;2024-02-26T08:14:15;0.77;;;0.57;;
31126;SDS011;17775;57.948;12.514;2024-02-26T08:16:42;1.00;;;0.80;;
31126;SDS011;17775;57.948;12.514;2024-02-26T08:19:08;1.90;;;1.48;;
31126;SDS011;17775;57.948;12.514;2024-02-26T08:21:36;2.17;;;1.27;;
31126;SDS011;17775;57.948;12.514;2024-02-26T08:24:03;2.47;;;1.50;;
31126;SDS011;17775;57.948;12.514;2024-02-26T08:26:30;1.55;;;1.15;;
31126;SDS011;17775;57.948;12.514;2024-02-26T08:28:56;1.88;;;1.27;;
31126;SDS011;17775;57.948;12.514;2024-02-26T08:31:24;2.65;;;1.63;;
31126;SDS011;17775;57.948;12.514;2024-02-26T08:33:51;2.28;;;1.52;;
31126;SDS011;17775;57.948;12.514;2024-02-26T08:36:17;1.73;;;1.20;;
31126;SDS011;17775;57.948;12.514;2024-02-26T08:38:44;1.73;;;1.25;;
31126;SDS011;17775;57.948;12.514;2024-02-26T08:41:10;1.63;;;1.25;;
31126;SDS011;17775;57.948;12.514;2024-02-26T08:43:37;1.75;;;1.40;;
31126;SDS011;17775;57.948;12.514;2024-02-26T08:46:03;1.52;;;1.10;;
31126;SDS011;17775;57.948;12.514;2024-02-26T08:48:30;1.63;;;1.20;;
31126;SDS011;17775;57.948;12.514;2024-02-26T08:50:57;2.08;;;1.35;;
31126;SDS011;17775;57.948;12.514;2024-02-26T08:53:23;2.05;;;1.63;;
31126;SDS011;17775;57.948;12.514;2024-02-26T08:56:10;1.95;;;1.48;;
31126;SDS011;17775;57.948;12.514;2024-02-26T08:58:56;1.70;;;1.30;;
31126;SDS011;17775;57.948;12.514;2024-02-26T09:01:23;1.58;;;1.10;;
31126;SDS011;17775;57.948;12.514;2024-02-26T09:03:50;1.58;;;1.23;;
31126;SDS011;17775;57.948;12.514;2024-02-26T09:06:16;1.40;;;1.05;;
31126;SDS011;17775;57.948;12.514;2024-02-26T09:08:43;1.33;;;1.10;;
31126;SDS011;17775;57.948;12.514;2024-02-26T09:11:10;1.40;;;1.10;;
31126;SDS011;17775;57.948;12.514;2024-02-26T09:13:36;1.20;;;0.85;;
31126;SDS011;17775;57.948;12.514;2024-02-26T09:16:03;0.93;;;0.75;;
31126;SDS011;17775;57.948;12.514;2024-02-26T09:18:30;0.77;;;0.70;;
31126;SDS011;17775;57.948;12.514;2024-02-26T09:20:56;0.77;;;0.70;;
31126;SDS011;17775;57.948;12.514;2024-02-26T09:23:25;0.63;;;0.57;;
31126;SDS011;17775;57.948;12.514;2024-02-26T09:25:52;1.77;;;1.00;;
31126;SDS011;17775;57.948;12.514;2024-02-26T09:28:21;1.27;;;0.90;;
31126;SDS011;17775;57.948;12.514;2024-02-26T09:30:48;1.05;;;0.80;;
31126;SDS011;17775;57.948;12.514;2024-02-26T09:33:15;1.27;;;0.90;;
31126;SDS011;17775;57.948;12.514;2024-02-26T09:35:42;1.23;;;0.90;;
31126;SDS011;17775;57.948;12.514;2024-02-26T09:38:12;0.80;;;0.57;;
31126;SDS011;17775;57.948;12.514;2024-02-26T09:40:39;1.75;;;1.20;;
31126;SDS011;17775;57.948;12.514;2024-02-26T09:43:06;1.73;;;1.30;;
31126;SDS011;17775;57.948;12.514;2024-02-26T09:45:36;2.35;;;1.58;;
31126;SDS011;17775;57.948;12.514;2024-02-26T09:48:03;2.60;;;1.75;;
31126;SDS011;17775;57.948;12.514;2024-02-26T09:50:31;2.08;;;1.35;;
31126;SDS011;17775;57.948;12.514;2024-02-26T09:52:57;2.00;;;1.40;;
31126;SDS011;17775;57.948;12.514;2024-02-26T09:55:26;1.55;;;1.05;;
31126;SDS011;17775;57.948;12.514;2024-02-26T09:57:52;1.60;;;1.10;;
31126;SDS011;17775;57.948;12.514;2024-02-26T10:00:20;1.52;;;1.10;;
31126;SDS011;17775;57.948;12.514;2024-02-26T10:02:47;2.28;;;1.60;;
31126;SDS011;17775;57.948;12.514;2024-02-26T10:05:16;4.40;;;3.40;;
31126;SDS011;17775;57.948;12.514;2024-02-26T10:07:44;4.03;;;2.60;;
31126;SDS011;17775;57.948;12.514;2024-02-26T10:10:11;3.38;;;2.63;;
31126;SDS011;17775;57.948;12.514;2024-02-26T10:12:37;2.58;;;2.05;;
31126;SDS011;17775;57.948;12.514;2024-02-26T10:15:04;2.95;;;2.40;;
31126;SDS011;17775;57.948;12.514;2024-02-26T10:17:31;4.03;;;2.40;;
31126;SDS011;17775;57.948;12.514;2024-02-26T10:20:11;5.10;;;3.80;;
31126;SDS011;17775;57.948;12.514;2024-02-26T10:22:38;3.20;;;2.50;;
31126;SDS011;17775;57.948;12.514;2024-02-26T10:25:05;3.55;;;2.78;;
31126;SDS011;17775;57.948;12.514;2024-02-26T10:27:31;3.58;;;2.83;;
31126;SDS011;17775;57.948;12.514;2024-02-26T10:29:58;3.42;;;2.65;;
31126;SDS011;17775;57.948;12.514;2024-02-26T10:32:24;3.00;;;2.20;;
31126;SDS011;17775;57.948;12.514;2024-02-26T10:34:55;4.45;;;3.17;;
31126;SDS011;17775;57.948;12.514;2024-02-26T10:39:48;3.67;;;2.45;;
31126;SDS011;17775;57.948;12.514;2024-02-26T10:42:14;3.30;;;2.20;;
31126;SDS011;17775;57.948;12.514;2024-02-26T10:44:44;3.05;;;2.17;;
31126;SDS011;17775;57.948;12.514;2024-02-26T10:47:12;2.42;;;1.60;;
31126;SDS011;17775;57.948;12.514;2024-02-26T10:49:44;3.03;;;2.10;;
31126;SDS011;17775;57.948;12.514;2024-02-26T10:52:11;4.20;;;2.63;;
31126;SDS011;17775;57.948;12.514;2024-02-26T10:54:38;4.63;;;2.63;;
31126;SDS011;17775;57.948;12.514;2024-02-26T10:57:06;4.43;;;3.45;;
31126;SDS011;17775;57.948;12.514;2024-02-26T10:59:34;4.50;;;3.05;;
31126;SDS011;17775;57.948;12.514;2024-02-26T11:02:01;2.97;;;2.10;;
31126;SDS011;17775;57.948;12.514;2024-02-26T11:04:28;3.45;;;2.40;;
31126;SDS011;17775;57.948;12.514;2024-02-26T11:06:56;3.50;;;2.38;;
31126;SDS011;17775;57.948;12.514;2024-02-26T11:09:26;5.20;;;3.77;;
31126;SDS011;17775;57.948;12.514;2024-02-26T11:11:53;6.85;;;5.15;;
31126;SDS011;17775;57.948;12.514;2024-02-26T11:14:21;5.78;;;4.03;;
31126;SDS011;17775;57.948;12.514;2024-02-26T11:16:52;5.45;;;4.40;;
31126;SDS011;17775;57.948;12.514;2024-02-26T11:19:18;5.32;;;3.85;;
31126;SDS011;17775;57.948;12.514;2024-02-26T11:21:45;5.15;;;4.10;;
31126;SDS011;17775;57.948;12.514;2024-02-26T11:24:12;5.25;;;3.90;;
31126;SDS011;17775;57.948;12.514;2024-02-26T11:26:43;6.18;;;4.25;;
31126;SDS011;17775;57.948;12.514;2024-02-26T11:29:15;4.00;;;3.20;;
31126;SDS011;17775;57.948;12.514;2024-02-26T11:31:43;4.10;;;2.90;;
31126;SDS011;17775;57.948;12.514;2024-02-26T11:34:10;4.13;;;3.20;;
31126;SDS011;17775;57.948;12.514;2024-02-26T11:36:41;5.45;;;3.90;;
31126;SDS011;17775;57.948;12.514;2024-02-26T11:39:08;7.90;;;5.80;;
31126;SDS011;17775;57.948;12.514;2024-02-26T11:41:38;8.50;;;5.80;;
31126;SDS011;17775;57.948;12.514;2024-02-26T11:44:05;6.30;;;4.78;;
31126;SDS011;17775;57.948;12.514;2024-02-26T11:46:34;5.90;;;4.82;;
31126;SDS011;17775;57.948;12.514;2024-02-26T11:51:54;3.90;;;3.45;;
31126;SDS011;17775;57.948;12.514;2024-02-26T11:57:21;5.22;;;3.30;;
31126;SDS011;17775;57.948;12.514;2024-02-26T11:59:48;5.35;;;3.75;;
31126;SDS011;17775;57.948;12.514;2024-02-26T12:05:00;2.90;;;2.50;;
31126;SDS011;17775;57.948;12.514;2024-02-26T12:07:26;3.15;;;2.17;;
31126;SDS011;17775;57.948;12.514;2024-02-26T12:09:53;3.30;;;2.53;;
31126;SDS011;17775;57.948;12.514;2024-02-26T12:12:39;2.38;;;1.90;;
31126;SDS011;17775;57.948;12.514;2024-02-26T12:15:05;2.72;;;2.13;;
31126;SDS011;17775;57.948;12.514;2024-02-26T12:17:34;3.72;;;2.92;;
31126;SDS011;17775;57.948;12.514;2024-02-26T12:20:08;6.28;;;4.30;;
31126;SDS011;17775;57.948;12.514;2024-02-26T12:22:36;4.82;;;4.30;;
31126;SDS011;17775;57.948;12.514;2024-02-26T12:25:05;5.95;;;4.45;;
31126;SDS011;17775;57.948;12.514;2024-02-26T12:27:32;5.05;;;3.90;;
31126;SDS011;17775;57.948;12.514;2024-02-26T12:29:59;4.43;;;3.45;;
31126;SDS011;17775;57.948;12.514;2024-02-26T12:32:25;4.88;;;3.92;;
31126;SDS011;17775;57.948;12.514;2024-02-26T12:34:52;7.32;;;5.70;;
31126;SDS011;17775;57.948;12.514;2024-02-26T12:37:19;8.15;;;6.53;;
31126;SDS011;17775;57.948;12.514;2024-02-26T12:39:45;8.38;;;6.03;;
31126;SDS011;17775;57.948;12.514;2024-02-26T12:42:12;5.72;;;4.32;;
31126;SDS011;17775;57.948;12.514;2024-02-26T12:44:38;4.72;;;3.95;;
31126;SDS011;17775;57.948;12.514;2024-02-26T12:47:05;4.85;;;4.10;;
31126;SDS011;17775;57.948;12.514;2024-02-26T12:49:32;4.45;;;3.40;;
31126;SDS011;17775;57.948;12.514;2024-02-26T12:51:59;4.07;;;3.08;;
31126;SDS011;17775;57.948;12.514;2024-02-26T12:54:31;4.53;;;3.22;;
31126;SDS011;17775;57.948;12.514;2024-02-26T12:57:00;4.03;;;3.30;;
31126;SDS011;17775;57.948;12.514;2024-02-26T12:59:27;5.10;;;3.70;;
31126;SDS011;17775;57.948;12.514;2024-02-26T13:01:54;3.35;;;2.67;;
31126;SDS011;17775;57.948;12.514;2024-02-26T13:04:20;4.15;;;2.90;;
31126;SDS011;17775;57.948;12.514;2024-02-26T13:06:47;3.53;;;2.50;;
31126;SDS011;17775;57.948;12.514;2024-02-26T13:09:13;2.85;;;2.20;;
31126;SDS011;17775;57.948;12.514;2024-02-26T13:11:40;2.88;;;2.20;;
31126;SDS011;17775;57.948;12.514;2024-02-26T13:14:07;3.08;;;2.45;;
31126;SDS011;17775;57.948;12.514;2024-02-26T13:16:34;4.20;;;2.95;;
31126;SDS011;17775;57.948;12.514;2024-02-26T13:19:10;5.43;;;4.20;;
31126;SDS011;17775;57.948;12.514;2024-02-26T13:21:37;3.88;;;3.28;;
31126;SDS011;17775;57.948;12.514;2024-02-26T13:24:03;3.60;;;2.80;;
31126;SDS011;17775;57.948;12.514;2024-02-26T13:26:30;4.22;;;3.05;;
31126;SDS011;17775;57.948;12.514;2024-02-26T13:29:03;5.35;;;4.13;;
31126;SDS011;17775;57.948;12.514;2024-02-26T13:31:30;4.45;;;3.40;;
31126;SDS011;17775;57.948;12.514;2024-02-26T13:33:56;3.35;;;2.75;;
31126;SDS011;17775;57.948;12.514;2024-02-26T13:36:23;3.35;;;2.70;;
31126;SDS011;17775;57.948;12.514;2024-02-26T13:38:56;2.97;;;2.10;;
31126;SDS011;17775;57.948;12.514;2024-02-26T13:41:22;2.65;;;2.00;;
31126;SDS011;17775;57.948;12.514;2024-02-26T13:43:49;2.70;;;1.95;;
31126;SDS011;17775;57.948;12.514;2024-02-26T13:46:16;2.53;;;2.08;;
31126;SDS011;17775;57.948;12.514;2024-02-26T13:48:43;2.42;;;1.75;;
31126;SDS011;17775;57.948;12.514;2024-02-26T13:51:10;2.92;;;2.25;;
31126;SDS011;17775;57.948;12.514;2024-02-26T13:53:36;2.47;;;1.80;;
31126;SDS011;17775;57.948;12.514;2024-02-26T13:56:03;2.60;;;1.90;;
31126;SDS011;17775;57.948;12.514;2024-02-26T13:58:33;2.45;;;1.88;;
31126;SDS011;17775;57.948;12.514;2024-02-26T14:01:00;2.05;;;1.63;;
31126;SDS011;17775;57.948;12.514;2024-02-26T14:03:29;1.50;;;1.27;;
31126;SDS011;17775;57.948;12.514;2024-02-26T14:05:55;1.88;;;1.33;;
31126;SDS011;17775;57.948;12.514;2024-02-26T14:08:23;1.80;;;1.30;;
31126;SDS011;17775;57.948;12.514;2024-02-26T14:10:50;2.10;;;1.65;;
31126;SDS011;17775;57.948;12.514;2024-02-26T14:13:16;1.67;;;1.25;;
31126;SDS011;17775;57.948;12.514;2024-02-26T14:15:45;2.80;;;1.65;;
31126;SDS011;17775;57.948;12.514;2024-02-26T14:18:11;2.55;;;1.75;;
31126;SDS011;17775;57.948;12.514;2024-02-26T14:20:38;5.00;;;3.67;;
31126;SDS011;17775;57.948;12.514;2024-02-26T14:23:06;4.00;;;3.13;;
31126;SDS011;17775;57.948;12.514;2024-02-26T14:25:33;3.33;;;2.60;;
31126;SDS011;17775;57.948;12.514;2024-02-26T14:27:59;6.82;;;5.00;;
31126;SDS011;17775;57.948;12.514;2024-02-26T14:30:26;6.30;;;4.43;;
31126;SDS011;17775;57.948;12.514;2024-02-26T14:32:53;6.10;;;4.45;;
31126;SDS011;17775;57.948;12.514;2024-02-26T14:35:20;5.13;;;4.28;;
31126;SDS011;17775;57.948;12.514;2024-02-26T14:37:47;6.68;;;3.80;;
31126;SDS011;17775;57.948;12.514;2024-02-26T14:40:15;4.20;;;2.67;;
31126;SDS011;17775;57.948;12.514;2024-02-26T14:42:42;3.60;;;3.05;;
31126;SDS011;17775;57.948;12.514;2024-02-26T14:45:09;3.85;;;2.95;;
31126;SDS011;17775;57.948;12.514;2024-02-26T14:47:38;3.42;;;2.65;;
31126;SDS011;17775;57.948;12.514;2024-02-26T14:50:05;2.85;;;2.20;;
31126;SDS011;17775;57.948;12.514;2024-02-26T14:52:32;4.20;;;3.28;;